createdAt,value
2023-05-11T00:01:08.804Z,86.80
2023-05-11T00:06:10.655Z,86.70
2023-05-11T00:11:12.527Z,87.10
2023-05-11T00:16:14.895Z,87.10
2023-05-11T00:21:16.896Z,87.00
2023-05-11T00:26:18.709Z,87.10
2023-05-11T00:31:20.629Z,87.20
2023-05-11T00:36:22.489Z,86.70
2023-05-11T00:41:24.585Z,87.30
2023-05-11T00:46:27.786Z,87.50
2023-05-11T00:51:32.037Z,86.50
2023-05-11T00:56:33.892Z,86.90
2023-05-11T01:01:36.291Z,86.30
2023-05-11T01:07:09.148Z,86.70
2023-05-11T01:12:34.617Z,87.30
2023-05-11T01:18:02.014Z,88.90
2023-05-11T01:23:14.418Z,89.10
2023-05-11T01:28:41.120Z,89.60
2023-05-11T01:33:55.510Z,90.10
2023-05-11T01:39:01.551Z,90.20
2023-05-11T01:44:07.932Z,90.10
2023-05-11T01:49:10.847Z,90.00
2023-05-11T01:54:12.929Z,90.50
2023-05-11T01:59:15.346Z,90.80
2023-05-11T02:04:19.888Z,90.90
2023-05-11T02:09:22.056Z,91.30
2023-05-11T02:14:24.812Z,91.50
2023-05-11T02:19:28.031Z,91.80
2023-05-11T02:24:30.992Z,92.00
2023-05-11T02:29:32.850Z,92.10
2023-05-11T02:34:47.868Z,92.40
2023-05-11T02:39:54.692Z,92.30
2023-05-11T02:45:01.068Z,92.40
2023-05-11T02:50:04.345Z,92.90
2023-05-11T02:55:09.390Z,93.30
2023-05-11T03:00:12.546Z,93.40
2023-05-11T03:05:14.397Z,94.00
2023-05-11T03:10:16.335Z,94.60
2023-05-11T03:15:18.583Z,95.20
2023-05-11T03:20:23.800Z,94.90
2023-05-11T03:25:26.032Z,95.10
2023-05-11T03:30:28.585Z,94.70
2023-05-11T03:35:31.958Z,95.20
2023-05-11T03:40:34.663Z,95.50
2023-05-11T03:45:37.685Z,95.50
2023-05-11T03:50:39.777Z,95.70
2023-05-11T03:55:42.062Z,96.30
2023-05-11T04:00:43.899Z,95.80
2023-05-11T04:05:45.761Z,95.50
2023-05-11T04:10:47.562Z,95.10
2023-05-11T04:15:49.378Z,95.30
2023-05-11T04:20:51.250Z,95.10
2023-05-11T04:25:54.672Z,94.90
2023-05-11T04:30:57.446Z,95.50
2023-05-11T04:35:59.250Z,94.80
2023-05-11T04:41:08.370Z,94.40
2023-05-11T04:46:10.517Z,93.80
2023-05-11T04:51:12.459Z,93.60
2023-05-11T04:56:14.606Z,93.20
2023-05-11T05:01:16.466Z,90.80
2023-05-11T05:06:18.377Z,88.80
2023-05-11T05:11:21.601Z,88.10
2023-05-11T05:16:23.414Z,86.90
2023-05-11T05:21:25.327Z,85.20
2023-05-11T05:26:27.463Z,84.90
2023-05-11T05:31:29.919Z,83.40
2023-05-11T05:36:32.394Z,81.10
2023-05-11T05:41:34.219Z,81.50
2023-05-11T05:46:36.430Z,79.60
2023-05-11T05:51:38.325Z,81.20
2023-05-11T05:56:40.914Z,79.80
2023-05-11T06:01:46.273Z,78.00
2023-05-11T06:06:48.172Z,77.30
2023-05-11T06:11:49.992Z,75.70
2023-05-11T06:16:53.699Z,74.00
2023-05-11T06:21:55.759Z,75.20
2023-05-11T06:26:57.682Z,75.40
2023-05-11T06:31:59.570Z,76.20
2023-05-11T06:37:01.400Z,75.20
2023-05-11T06:42:06.590Z,75.10
2023-05-11T06:47:09.019Z,75.80
2023-05-11T06:52:10.937Z,73.50
2023-05-11T06:57:14.541Z,74.00
2023-05-11T07:02:16.623Z,74.30
2023-05-11T07:07:18.477Z,72.50
2023-05-11T07:12:20.363Z,72.10
2023-05-11T07:17:22.364Z,71.80
2023-05-11T07:22:24.322Z,70.50
2023-05-11T07:27:26.290Z,68.10
2023-05-11T07:32:28.233Z,69.70
2023-05-11T07:37:30.103Z,68.50
2023-05-11T07:42:31.967Z,68.00
2023-05-11T07:47:36.631Z,69.80
2023-05-11T07:52:38.767Z,65.50
2023-05-11T07:57:41.015Z,68.40
2023-05-11T08:02:42.957Z,68.40
2023-05-11T08:07:44.954Z,65.40
2023-05-11T08:12:47.020Z,65.50
2023-05-11T08:17:48.949Z,67.00
2023-05-11T08:22:50.769Z,66.50
2023-05-11T08:27:52.613Z,65.70
2023-05-11T08:32:58.860Z,64.60
2023-05-11T08:38:01.326Z,63.40
2023-05-11T08:43:05.520Z,64.10
2023-05-11T08:48:07.446Z,63.90
2023-05-11T08:53:09.278Z,62.30
2023-05-11T08:58:14.447Z,63.20
2023-05-11T09:10:11.498Z,60.90
2023-05-11T09:15:14.820Z,61.20
2023-05-11T09:20:26.902Z,62.10
2023-05-11T09:25:35.287Z,60.00
2023-05-11T09:30:37.641Z,60.50
2023-05-11T09:35:40.259Z,60.90
2023-05-11T09:40:51.677Z,63.80
2023-05-11T09:45:55.606Z,61.30
2023-05-11T09:51:07.653Z,59.80
2023-05-11T09:56:10.233Z,59.20
2023-05-11T10:01:12.126Z,58.50
2023-05-11T10:06:14.025Z,59.00
2023-05-11T10:11:15.907Z,58.50
2023-05-11T10:16:19.396Z,59.50
2023-05-11T10:21:21.489Z,60.40
2023-05-11T10:26:24.430Z,58.30
2023-05-11T10:31:26.595Z,60.80
2023-05-11T10:36:29.214Z,59.50
2023-05-11T10:41:33.862Z,59.90
2023-05-11T10:47:24.348Z,59.20
2023-05-11T10:52:34.339Z,59.60
2023-05-11T10:57:53.597Z,57.80
2023-05-11T11:02:57.277Z,58.40
2023-05-11T11:08:00.361Z,57.70
2023-05-11T11:13:06.312Z,58.10
2023-05-11T11:18:23.701Z,58.40
2023-05-11T11:23:44.794Z,56.40
2023-05-11T11:29:00.575Z,56.60
2023-05-11T11:34:39.580Z,57.90
2023-05-11T11:39:41.341Z,56.70
2023-05-11T11:44:44.337Z,56.20
2023-05-11T11:49:55.420Z,56.70
2023-05-11T11:55:01.457Z,54.70
2023-05-11T12:00:07.120Z,57.30
2023-05-11T12:05:18.416Z,56.20
2023-05-11T12:10:23.667Z,56.30
2023-05-11T12:15:29.906Z,54.50
2023-05-11T12:20:32.845Z,54.40
2023-05-11T12:25:34.755Z,55.00
2023-05-11T12:30:36.563Z,57.00
2023-05-11T12:35:42.511Z,54.40
2023-05-11T12:40:52.936Z,54.50
2023-05-11T12:45:54.836Z,55.90
2023-05-11T12:50:56.916Z,56.90
2023-05-11T12:55:59.536Z,54.80
2023-05-11T13:01:01.604Z,56.40
2023-05-11T13:06:13.435Z,55.10
2023-05-11T13:11:26.839Z,55.60
2023-05-11T13:16:33.467Z,55.00
2023-05-11T13:21:35.456Z,53.10
2023-05-11T13:26:37.292Z,54.90
2023-05-11T13:31:53.073Z,54.70
2023-05-11T13:36:54.970Z,52.90
2023-05-11T13:41:56.816Z,53.90
2023-05-11T13:46:58.691Z,54.00
2023-05-11T13:52:00.585Z,54.70
2023-05-11T13:57:02.720Z,53.80
2023-05-11T14:02:04.707Z,54.00
2023-05-11T14:07:06.773Z,54.40
2023-05-11T14:12:08.588Z,51.50
2023-05-11T14:17:11.587Z,53.50
2023-05-11T14:22:13.451Z,54.00
2023-05-11T14:27:15.342Z,53.50
2023-05-11T14:32:18.929Z,55.80
2023-05-11T14:37:20.816Z,55.10
2023-05-11T14:42:22.887Z,53.10
2023-05-11T14:47:25.049Z,54.80
2023-05-11T14:52:26.947Z,54.70
2023-05-11T14:57:29.106Z,55.00
2023-05-11T15:02:30.983Z,55.40
2023-05-11T15:07:33.906Z,53.50
2023-05-11T15:12:35.792Z,54.60
2023-05-11T15:17:37.671Z,56.20
2023-05-11T15:22:39.534Z,54.90
2023-05-11T15:27:41.376Z,55.20
2023-05-11T15:32:43.582Z,54.90
2023-05-11T15:37:45.530Z,55.10
2023-05-11T15:42:47.510Z,54.90
2023-05-11T15:47:49.324Z,54.00
2023-05-11T15:52:51.185Z,54.30
2023-05-11T15:57:53.102Z,54.70
2023-05-11T16:02:55.003Z,55.30
2023-05-11T16:07:56.987Z,54.40
2023-05-11T16:12:59.147Z,53.80
2023-05-11T16:18:03.115Z,54.60
2023-05-11T16:23:07.053Z,55.00
2023-05-11T16:28:09.085Z,56.20
2023-05-11T16:33:10.918Z,57.80
2023-05-11T16:38:17.697Z,57.80
2023-05-11T16:43:19.526Z,59.00
2023-05-11T16:48:28.486Z,58.40
2023-05-11T16:53:31.736Z,58.00
2023-05-11T16:58:33.664Z,57.40
2023-05-11T17:03:35.740Z,57.70
2023-05-11T17:08:37.998Z,56.30
2023-05-11T17:13:39.904Z,55.70
2023-05-11T17:18:41.867Z,55.80
2023-05-11T17:23:45.095Z,56.60
2023-05-11T17:28:47.307Z,56.60
2023-05-11T17:33:49.702Z,57.20
2023-05-11T17:38:53.562Z,57.60
2023-05-11T17:43:55.677Z,57.90
2023-05-11T17:48:57.769Z,58.90
2023-05-11T17:53:59.710Z,59.20
2023-05-11T17:59:01.589Z,59.50
2023-05-11T18:04:04.708Z,60.20
2023-05-11T18:09:06.928Z,60.40
2023-05-11T18:14:10.827Z,61.30
2023-05-11T18:19:12.731Z,60.50
2023-05-11T18:24:15.247Z,61.50
2023-05-11T18:29:20.082Z,61.60
2023-05-11T18:34:22.288Z,61.60
2023-05-11T18:39:24.236Z,62.20
2023-05-11T18:44:26.199Z,62.40
2023-05-11T18:49:28.160Z,62.70
2023-05-11T18:54:29.977Z,63.00
2023-05-11T18:59:31.813Z,63.80
2023-05-11T19:04:33.908Z,70.20
2023-05-11T19:09:36.163Z,71.90
2023-05-11T19:14:38.064Z,74.90
2023-05-11T19:19:39.973Z,75.60
2023-05-11T19:24:44.094Z,77.20
2023-05-11T19:29:49.260Z,78.00
2023-05-11T19:34:51.900Z,79.10
2023-05-11T19:39:55.050Z,80.10
2023-05-11T19:45:01.412Z,81.40
2023-05-11T19:50:14.582Z,81.40
2023-05-11T19:55:16.492Z,81.90
2023-05-11T20:00:18.912Z,82.80
2023-05-11T20:05:21.021Z,83.00
2023-05-11T20:10:23.071Z,83.90
2023-05-11T20:15:25.416Z,84.30
2023-05-11T20:20:27.325Z,85.00
2023-05-11T20:25:29.181Z,85.40
2023-05-11T20:30:31.051Z,85.90
2023-05-11T20:35:34.214Z,86.50
2023-05-11T20:40:36.474Z,87.40
2023-05-11T20:45:38.366Z,87.80
2023-05-11T20:50:40.301Z,87.60
2023-05-11T20:55:42.130Z,88.60
2023-05-11T21:00:44.251Z,88.80
2023-05-11T21:05:46.142Z,89.80
2023-05-11T21:10:48.825Z,90.30
2023-05-11T21:15:50.704Z,90.80
2023-05-11T21:20:52.521Z,91.10
2023-05-11T21:25:55.379Z,91.20
2023-05-11T21:30:58.031Z,91.40
2023-05-11T21:35:59.930Z,91.80
2023-05-11T21:41:03.350Z,91.70
2023-05-11T21:46:05.423Z,92.10
2023-05-11T21:51:08.220Z,92.30
2023-05-11T21:56:10.080Z,93.00
2023-05-11T22:01:12.253Z,92.80
2023-05-11T22:06:14.088Z,92.80
2023-05-11T22:11:16.097Z,92.90
2023-05-11T22:16:18.954Z,93.50
2023-05-11T22:21:20.826Z,93.70
2023-05-11T22:26:23.026Z,94.00
2023-05-11T22:31:26.720Z,94.60
2023-05-11T22:36:28.869Z,94.80
2023-05-11T22:41:30.752Z,95.10
2023-05-11T22:46:32.879Z,95.60
2023-05-11T22:51:35.032Z,96.20
2023-05-11T22:56:38.089Z,96.40
2023-05-11T23:01:40.013Z,97.00
2023-05-11T23:06:41.971Z,97.00
2023-05-11T23:11:44.280Z,97.30
2023-05-11T23:16:46.162Z,98.00
2023-05-11T23:21:48.097Z,97.90
2023-05-11T23:26:49.939Z,98.30
2023-05-11T23:31:51.912Z,98.40
2023-05-11T23:36:53.802Z,97.70
2023-05-11T23:41:55.713Z,99.10
2023-05-11T23:46:57.569Z,99.30
2023-05-11T23:51:59.660Z,99.90
2023-05-11T23:57:02.089Z,99.90
